Time;durP1;ratioP1;P1;durP2;ratioP2;P2;SDS_P1;SDS_P2;PMS_P1;PMS_P2;Temp;Humidity;BMP_temperature;BMP_pressure;BME280_temperature;BME280_humidity;BME280_pressure;Samples;Min_cycle;Max_cycle;Signal;HPM_P1;HPM_P2
2021/01/15 00:02:11;;;;;;;32.78;11.12;;;;;;;-4.60;80.42;98667.17;2257242;78;21261;-67
2021/01/15 00:05:12;;;;;;;33.92;12.47;;;;;;;-4.61;80.36;98674.45;2257575;79;21273;-67
2021/01/15 00:08:13;;;;;;;34.90;12.82;;;;;;;-4.62;80.44;98660.38;2253269;79;21258;-66
2021/01/15 00:11:14;;;;;;;36.93;13.43;;;;;;;-4.63;80.45;98654.39;2245805;78;21312;-68
2021/01/15 00:14:15;;;;;;;35.92;12.50;;;;;;;-4.61;80.58;98656.54;2244331;79;21273;-66
2021/01/15 00:17:17;;;;;;;33.23;11.28;;;;;;;-4.62;80.27;98663.78;2244639;79;21270;-66
2021/01/15 00:20:18;;;;;;;35.65;11.95;;;;;;;-4.64;80.37;98655.27;2252207;79;21685;-65
2021/01/15 00:23:20;;;;;;;34.65;13.13;;;;;;;-4.65;80.23;98650.16;2250697;79;21269;-65
2021/01/15 00:26:21;;;;;;;34.48;12.03;;;;;;;-4.65;80.58;98644.59;2251505;78;21257;-65
2021/01/15 00:29:23;;;;;;;32.38;12.00;;;;;;;-4.64;80.68;98646.31;2255508;78;21740;-67
2021/01/15 00:32:24;;;;;;;34.30;12.18;;;;;;;-4.65;80.71;98660.39;2253170;78;21288;-66
2021/01/15 00:35:25;;;;;;;33.50;12.45;;;;;;;-4.67;80.57;98659.09;2255282;78;21270;-65
2021/01/15 00:38:26;;;;;;;37.03;12.35;;;;;;;-4.66;80.73;98662.52;2248769;79;21738;-66
2021/01/15 00:41:28;;;;;;;35.45;12.28;;;;;;;-4.64;80.59;98674.47;2231410;79;21788;-67
2021/01/15 00:44:29;;;;;;;33.48;11.45;;;;;;;-4.62;80.64;98667.63;2252807;78;21131;-67
2021/01/15 00:47:31;;;;;;;37.35;14.23;;;;;;;-4.61;80.57;98677.02;2245203;78;21317;-67
2021/01/15 00:50:32;;;;;;;35.30;13.20;;;;;;;-4.59;80.73;98678.29;2248068;79;21313;-69
2021/01/15 00:53:33;;;;;;;36.40;13.00;;;;;;;-4.55;80.75;98677.43;2250766;78;21137;-66
2021/01/15 00:56:34;;;;;;;40.33;14.03;;;;;;;-4.53;80.75;98676.55;2252081;79;21171;-69
2021/01/15 00:59:36;;;;;;;37.40;13.88;;;;;;;-4.54;80.86;98681.67;2245714;78;21272;-68
2021/01/15 01:02:37;;;;;;;35.50;13.05;;;;;;;-4.52;80.81;98683.82;2252621;79;21270;-66
2021/01/15 01:05:38;;;;;;;40.55;14.38;;;;;;;-4.52;81.09;98681.26;2253248;78;21314;-66
2021/01/15 01:08:39;;;;;;;39.42;14.07;;;;;;;-4.51;81.21;98671.45;2253730;78;21139;-67
2021/01/15 01:11:40;;;;;;;38.60;14.30;;;;;;;-4.52;81.18;98669.73;2250919;78;21728;-66
2021/01/15 01:14:42;;;;;;;41.58;15.63;;;;;;;-4.54;81.32;98670.16;2239799;79;21266;-66
2021/01/15 01:17:44;;;;;;;36.15;14.53;;;;;;;-4.55;81.46;98672.31;2245068;78;21257;-66
2021/01/15 01:20:45;;;;;;;39.10;14.77;;;;;;;-4.52;81.54;98673.58;2250014;79;21279;-66
2021/01/15 01:23:46;;;;;;;36.95;13.83;;;;;;;-4.47;81.56;98676.12;2248988;79;21300;-66
2021/01/15 01:26:48;;;;;;;37.55;14.85;;;;;;;-4.45;81.62;98674.39;2251629;79;21297;-68
2021/01/15 01:29:49;;;;;;;38.10;14.65;;;;;;;-4.46;81.59;98675.27;2258083;78;21142;-69
2021/01/15 01:32:50;;;;;;;38.08;14.80;;;;;;;-4.47;82.01;98678.68;2252329;78;21285;-67
2021/01/15 01:35:51;;;;;;;41.33;14.15;;;;;;;-4.48;81.87;98683.37;2245027;78;21297;-69
2021/01/15 01:38:52;;;;;;;43.40;15.58;;;;;;;-4.45;81.84;98688.07;2250579;78;21717;-67
2021/01/15 01:41:53;;;;;;;39.13;14.20;;;;;;;-4.42;81.89;98683.37;2245577;78;21285;-66
2021/01/15 01:44:54;;;;;;;40.58;14.58;;;;;;;-4.44;82.29;98691.06;2248262;79;21292;-67
2021/01/15 01:47:56;;;;;;;38.70;14.68;;;;;;;-4.45;82.07;98696.16;2244631;78;21288;-66
2021/01/15 01:50:58;;;;;;;37.75;14.53;;;;;;;-4.46;81.96;98691.48;2253856;78;21293;-70
2021/01/15 01:53:59;;;;;;;39.67;16.12;;;;;;;-4.42;81.94;98694.45;2253306;79;21277;-74
2021/01/15 01:57:00;;;;;;;40.92;15.45;;;;;;;-4.39;82.02;98693.16;2246279;78;21276;-74
2021/01/15 02:00:01;;;;;;;39.38;14.78;;;;;;;-4.38;82.08;98696.16;2249483;78;21265;-73
2021/01/15 02:03:03;;;;;;;40.88;15.50;;;;;;;-4.38;81.87;98692.75;2250893;79;21741;-74
2021/01/15 02:06:04;;;;;;;41.42;15.53;;;;;;;-4.41;81.52;98703.85;2251029;78;21272;-74
2021/01/15 02:09:06;;;;;;;41.50;15.95;;;;;;;-4.42;81.50;98718.78;2239942;79;21264;-72
2021/01/15 02:12:07;;;;;;;41.98;16.07;;;;;;;-4.38;81.46;98717.92;2247270;78;21250;-71
2021/01/15 02:15:08;;;;;;;43.25;15.58;;;;;;;-4.33;81.43;98718.34;2252634;79;21276;-72
2021/01/15 02:18:10;;;;;;;42.98;16.77;;;;;;;-4.30;81.73;98730.70;2251248;78;21273;-65
2021/01/15 02:21:11;;;;;;;44.03;16.47;;;;;;;-4.29;81.33;98728.57;2253380;78;21357;-66
2021/01/15 02:24:12;;;;;;;42.50;17.17;;;;;;;-4.32;80.82;98736.67;2247333;79;21134;-66
2021/01/15 02:27:13;;;;;;;44.93;17.32;;;;;;;-4.31;80.78;98735.42;2244789;78;21284;-71
2021/01/15 02:30:15;;;;;;;45.83;17.80;;;;;;;-4.32;80.78;98745.23;2246639;78;21292;-67
2021/01/15 02:33:16;;;;;;;42.43;16.80;;;;;;;-4.32;80.74;98740.11;2246538;78;21273;-67
2021/01/15 02:36:17;;;;;;;42.95;17.50;;;;;;;-4.29;80.64;98740.09;2249853;78;21751;-70
2021/01/15 02:39:18;;;;;;;46.68;18.80;;;;;;;-4.26;80.62;98750.77;2254024;78;21690;-66
2021/01/15 02:42:20;;;;;;;43.42;16.25;;;;;;;-4.26;80.15;98750.33;2250041;78;21574;-66
2021/01/15 02:45:21;;;;;;;43.65;16.27;;;;;;;-4.25;80.37;98749.89;2245131;78;21575;-70
2021/01/15 02:48:22;;;;;;;43.15;17.12;;;;;;;-4.27;79.89;98760.58;2253138;78;21705;-67
2021/01/15 02:51:24;;;;;;;40.50;15.27;;;;;;;-4.26;80.16;98761.02;2253103;79;21293;-66
2021/01/15 02:54:25;;;;;;;41.83;16.62;;;;;;;-4.27;79.93;98760.14;2252435;78;21274;-66
2021/01/15 02:57:27;;;;;;;41.35;15.85;;;;;;;-4.24;80.06;98767.84;2247772;78;21720;-68
2021/01/15 03:00:28;;;;;;;40.55;15.30;;;;;;;-4.22;80.19;98762.72;2283705;78;21560;-66
2021/01/15 03:03:29;;;;;;;41.48;15.72;;;;;;;-4.22;80.22;98763.55;2262818;78;22080;-67
2021/01/15 03:06:30;;;;;;;41.48;15.85;;;;;;;-4.24;79.95;98765.28;2255440;78;21295;-66
2021/01/15 03:09:32;;;;;;;38.15;14.38;;;;;;;-4.27;79.75;98767.82;2259872;78;21312;-66
2021/01/15 03:12:33;;;;;;;36.98;13.13;;;;;;;-4.28;79.27;98772.95;2258270;78;21280;-66
2021/01/15 03:15:34;;;;;;;37.00;13.15;;;;;;;-4.36;78.72;98774.26;2255479;78;21300;-68
2021/01/15 03:18:36;;;;;;;35.33;14.30;;;;;;;-4.45;79.23;98776.81;2257543;78;21721;-65
2021/01/15 03:21:37;;;;;;;37.93;13.68;;;;;;;-4.50;79.06;98779.83;2256399;78;21300;-70
2021/01/15 03:24:39;;;;;;;34.08;12.05;;;;;;;-4.58;78.74;98774.28;2254709;78;21119;-67
2021/01/15 03:27:40;;;;;;;32.73;11.50;;;;;;;-4.63;78.37;98787.50;2255616;78;21709;-71
2021/01/15 03:30:42;;;;;;;36.60;13.05;;;;;;;-4.67;78.78;98781.11;2257003;78;21724;-67
2021/01/15 03:33:43;;;;;;;36.93;12.55;;;;;;;-4.70;77.81;98776.84;2253778;78;21697;-73
2021/01/15 03:36:44;;;;;;;31.90;10.98;;;;;;;-4.73;78.57;98782.80;2258558;78;21799;-67
2021/01/15 03:39:46;;;;;;;35.17;11.83;;;;;;;-4.75;78.38;98781.97;2256649;78;21608;-65
2021/01/15 03:42:47;;;;;;;34.40;12.07;;;;;;;-4.73;78.29;98788.36;2255645;78;21285;-69
2021/01/15 03:45:48;;;;;;;34.27;12.13;;;;;;;-4.79;77.97;98783.25;2252298;78;21289;-68
2021/01/15 03:48:49;;;;;;;36.83;13.43;;;;;;;-4.81;78.31;98799.02;2259363;78;21728;-71
2021/01/15 03:51:51;;;;;;;33.20;11.47;;;;;;;-4.81;78.41;98796.05;2258197;78;21272;-69
2021/01/15 03:54:52;;;;;;;33.10;11.70;;;;;;;-4.81;77.74;98803.73;2260145;78;21332;-69
2021/01/15 03:57:53;;;;;;;33.70;11.65;;;;;;;-4.87;77.14;98807.13;2256252;78;21276;-68
2021/01/15 04:00:55;;;;;;;29.72;10.70;;;;;;;-4.93;77.43;98804.58;2260194;78;21784;-70
2021/01/15 04:03:56;;;;;;;30.68;10.08;;;;;;;-5.02;77.38;98805.83;2264640;78;21705;-72
2021/01/15 04:06:57;;;;;;;33.70;12.53;;;;;;;-5.11;77.65;98811.78;2257761;78;21303;-67
2021/01/15 04:09:58;;;;;;;31.45;10.58;;;;;;;-5.14;78.18;98807.08;2255491;78;21278;-69
2021/01/15 04:12:59;;;;;;;31.45;11.12;;;;;;;-5.23;77.98;98810.06;2256930;78;21264;-68
2021/01/15 04:16:01;;;;;;;29.55;10.60;;;;;;;-5.27;78.30;98815.17;2256968;78;21260;-73
2021/01/15 04:19:02;;;;;;;29.07;9.43;;;;;;;-5.31;78.12;98827.08;2255587;78;21291;-73
2021/01/15 04:22:03;;;;;;;34.73;10.98;;;;;;;-5.35;77.98;98820.25;2256377;78;21273;-71
2021/01/15 04:25:04;;;;;;;32.65;10.88;;;;;;;-5.37;77.88;98819.80;2257862;78;21708;-73
2021/01/15 04:28:05;;;;;;;30.12;9.13;;;;;;;-5.39;78.19;98831.31;2257756;78;21572;-73
2021/01/15 04:31:07;;;;;;;25.50;8.13;;;;;;;-5.43;77.44;98833.02;2260565;78;21276;-71
2021/01/15 04:34:08;;;;;;;22.30;7.17;;;;;;;-5.47;77.80;98824.91;2262062;78;21720;-73
2021/01/15 04:37:10;;;;;;;27.87;8.80;;;;;;;-5.50;77.80;98821.06;2263291;78;21575;-71
2021/01/15 04:40:11;;;;;;;27.87;8.75;;;;;;;-5.53;77.92;98827.45;2256347;78;21705;-66
2021/01/15 04:43:12;;;;;;;26.00;8.25;;;;;;;-5.55;77.82;98829.56;2261991;78;21281;-66
2021/01/15 04:46:13;;;;;;;26.48;8.13;;;;;;;-5.62;77.67;98832.07;2262833;78;21749;-65
2021/01/15 04:49:15;;;;;;;26.00;7.47;;;;;;;-5.70;77.65;98831.61;2258532;78;21717;-65
2021/01/15 04:52:16;;;;;;;25.52;7.05;;;;;;;-5.80;77.16;98832.02;2255085;78;21277;-65
2021/01/15 04:55:17;;;;;;;25.65;8.13;;;;;;;-5.95;77.45;98840.43;2259093;78;21335;-65
2021/01/15 04:58:18;;;;;;;24.82;7.15;;;;;;;-6.10;77.92;98837.41;2258550;78;21280;-65
2021/01/15 05:01:19;;;;;;;22.87;7.00;;;;;;;-6.21;78.10;98846.70;2255757;78;21291;-65
2021/01/15 05:04:20;;;;;;;24.07;7.72;;;;;;;-6.32;78.18;98855.14;2262672;78;21134;-71
2021/01/15 05:07:23;;;;;;;24.82;7.37;;;;;;;-6.44;78.18;98852.48;2256871;78;21276;-72
2021/01/15 05:10:25;;;;;;;23.75;7.08;;;;;;;-6.56;78.21;98864.73;2257580;78;21273;-73
2021/01/15 05:13:26;;;;;;;23.30;7.40;;;;;;;-6.66;78.09;98868.89;2255080;78;21755;-74
2021/01/15 05:16:27;;;;;;;23.80;6.58;;;;;;;-6.75;78.26;98863.72;2255568;78;21272;-73
2021/01/15 05:19:28;;;;;;;24.25;7.40;;;;;;;-6.82;78.51;98870.88;2255672;78;21106;-71
2021/01/15 05:22:29;;;;;;;25.13;7.40;;;;;;;-6.91;78.45;98870.78;2234014;78;21277;-67
2021/01/15 05:25:30;;;;;;;27.27;7.33;;;;;;;-7.06;78.68;98870.21;2258420;78;21713;-70
2021/01/15 05:28:32;;;;;;;23.62;7.45;;;;;;;-7.17;78.97;98874.78;2256875;78;21771;-71
2021/01/15 05:31:33;;;;;;;22.75;6.97;;;;;;;-7.22;79.15;98876.41;2260630;78;21706;-72
2021/01/15 05:34:34;;;;;;;26.95;7.33;;;;;;;-7.33;79.37;98879.25;2255737;78;21742;-67
2021/01/15 05:37:36;;;;;;;25.02;7.17;;;;;;;-7.43;79.48;98890.18;2256080;78;21709;-70
2021/01/15 05:40:37;;;;;;;25.25;8.00;;;;;;;-7.51;79.54;98897.31;2263731;78;21276;-74
2021/01/15 05:43:39;;;;;;;24.75;7.12;;;;;;;-7.61;79.80;98891.66;2262071;78;21280;-69
2021/01/15 05:46:42;;;;;;;22.48;6.87;;;;;;;-7.70;79.48;98895.34;2263265;78;21360;-70
2021/01/15 05:49:43;;;;;;;24.80;7.08;;;;;;;-7.82;80.26;98902.41;2258209;78;21283;-68
2021/01/15 05:52:45;;;;;;;21.97;6.70;;;;;;;-7.97;79.63;98908.16;2258858;78;21348;-71
2021/01/15 05:55:46;;;;;;;25.92;7.35;;;;;;;-8.11;80.50;98916.84;2259949;78;21268;-71
2021/01/15 05:58:47;;;;;;;25.00;7.10;;;;;;;-8.15;80.50;98911.27;2258621;78;21199;-65
2021/01/15 06:01:48;;;;;;;25.50;7.58;;;;;;;-8.19;80.72;98920.56;2259084;78;21245;-68
2021/01/15 06:04:50;;;;;;;24.55;7.80;;;;;;;-8.22;81.06;98928.13;2253252;78;21723;-70
2021/01/15 06:07:51;;;;;;;30.48;7.87;;;;;;;-8.23;80.76;98934.46;2259875;78;21264;-71
2021/01/15 06:10:52;;;;;;;24.82;7.33;;;;;;;-8.19;81.28;98934.95;2257048;78;21272;-67
2021/01/15 06:13:53;;;;;;;24.98;7.60;;;;;;;-8.14;81.27;98938.88;2261703;78;21269;-66
2021/01/15 06:16:58;;;;;;;26.27;7.42;;;;;;;-8.08;81.11;98942.34;2257917;78;21286;-65
2021/01/15 06:19:58;;;;;;;27.65;8.18;;;;;;;-7.98;81.04;98936.98;2256081;78;21249;-65
2021/01/15 06:23:00;;;;;;;22.75;6.80;;;;;;;-7.83;81.08;98947.80;2257766;78;21304;-67
2021/01/15 06:26:01;;;;;;;25.97;7.20;;;;;;;-7.76;80.86;98958.95;2256731;78;21708;-68
2021/01/15 06:29:02;;;;;;;26.93;7.35;;;;;;;-7.68;80.86;98954.41;2259835;78;21288;-66
2021/01/15 06:32:04;;;;;;;26.07;8.43;;;;;;;-7.61;80.67;98957.03;2254884;78;21598;-65
2021/01/15 06:35:05;;;;;;;28.32;8.08;;;;;;;-7.58;80.63;98963.47;2256470;78;21284;-65
2021/01/15 06:38:06;;;;;;;25.82;7.83;;;;;;;-7.41;80.63;98970.92;2256521;78;21139;-65
2021/01/15 06:41:07;;;;;;;24.72;7.50;;;;;;;-7.35;80.38;98972.27;2258591;78;21316;-72
2021/01/15 06:44:08;;;;;;;24.25;7.30;;;;;;;-7.35;80.14;98977.36;2252307;78;21681;-71
2021/01/15 06:47:09;;;;;;;25.43;8.03;;;;;;;-7.31;80.19;98974.45;2257486;78;21272;-74
2021/01/15 06:50:11;;;;;;;27.37;8.45;;;;;;;-7.26;80.14;98975.35;2257501;78;21272;-74
2021/01/15 06:53:12;;;;;;;26.45;7.92;;;;;;;-7.14;80.19;98982.30;2259590;78;21159;-72
2021/01/15 06:56:13;;;;;;;26.48;7.95;;;;;;;-7.01;79.88;98992.23;2263506;78;21276;-73
2021/01/15 06:59:14;;;;;;;24.67;7.58;;;;;;;-6.89;79.67;98992.82;2257378;78;21265;-74
2021/01/15 07:02:15;;;;;;;27.00;8.03;;;;;;;-6.88;79.13;98991.95;2255068;78;21253;-73
2021/01/15 07:05:17;;;;;;;22.20;6.47;;;;;;;-6.99;78.74;98993.13;2257017;78;21748;-72
2021/01/15 07:08:18;;;;;;;27.40;7.92;;;;;;;-7.17;78.97;98982.26;2258272;78;21705;-72
2021/01/15 07:11:19;;;;;;;40.92;13.08;;;;;;;-7.07;79.44;98982.80;2256512;78;21678;-66
2021/01/15 07:14:20;;;;;;;153.68;42.95;;;;;;;-6.87;79.25;98982.20;2257323;78;21269;-65
2021/01/15 07:17:21;;;;;;;135.07;40.75;;;;;;;-6.73;79.03;98982.37;2258211;78;21256;-67
2021/01/15 07:20:22;;;;;;;87.12;29.57;;;;;;;-6.62;78.88;98987.17;2258034;78;21275;-69
2021/01/15 07:23:25;;;;;;;75.72;26.82;;;;;;;-6.51;78.70;98980.45;2254036;78;21083;-65
2021/01/15 07:26:27;;;;;;;58.30;23.87;;;;;;;-6.29;78.75;98989.20;2257586;78;21269;-67
2021/01/15 07:29:28;;;;;;;59.13;21.15;;;;;;;-6.16;78.26;98981.63;2253949;78;21112;-66
2021/01/15 07:32:29;;;;;;;70.33;25.03;;;;;;;-5.93;78.52;98977.98;2231688;78;21671;-67
2021/01/15 07:35:30;;;;;;;93.65;34.53;;;;;;;-5.70;77.60;98979.42;2257124;78;21796;-70
2021/01/15 07:38:32;;;;;;;86.80;27.90;;;;;;;-5.53;77.61;98984.66;2258249;78;21175;-69
2021/01/15 07:41:33;;;;;;;88.67;34.13;;;;;;;-5.42;76.55;98988.10;2257102;78;21366;-66
2021/01/15 07:44:34;;;;;;;99.15;36.08;;;;;;;-5.36;76.81;98992.84;2263100;78;21269;-65
2021/01/15 07:47:37;;;;;;;91.72;33.45;;;;;;;-5.16;76.50;98997.63;2252253;78;21698;-66
2021/01/15 07:50:39;;;;;;;77.95;29.57;;;;;;;-5.20;76.14;98997.61;2256007;78;21293;-67
2021/01/15 07:53:45;;;;;;;71.02;26.45;;;;;;;-5.48;74.67;99005.13;2259816;78;21151;-69
2021/01/15 07:56:48;;;;;;;72.15;26.25;;;;;;;-5.70;75.47;99014.33;2258559;78;21133;-73
2021/01/15 07:59:49;;;;;;;72.75;26.12;;;;;;;-5.57;76.03;99017.42;2258650;78;21268;-66
2021/01/15 08:02:50;;;;;;;68.25;24.50;;;;;;;-5.39;75.61;99015.40;2257327;78;21735;-73
2021/01/15 08:05:52;;;;;;;67.12;25.05;;;;;;;-5.36;75.50;99024.80;2255089;78;21696;-72
2021/01/15 08:08:53;;;;;;;66.65;24.47;;;;;;;-5.08;75.46;99030.94;2255944;78;21717;-67
2021/01/15 08:11:54;;;;;;;82.35;31.52;;;;;;;-4.98;75.09;99033.97;2257879;78;21308;-68
2021/01/15 08:14:55;;;;;;;91.53;36.05;;;;;;;-5.07;73.92;99030.06;2258447;78;21747;-66
2021/01/15 08:17:56;;;;;;;75.40;27.67;;;;;;;-5.23;73.53;99035.52;2257055;78;21130;-70
2021/01/15 08:20:58;;;;;;;60.92;23.55;;;;;;;-5.24;73.42;99038.95;2256995;78;21303;-71
2021/01/15 08:23:59;;;;;;;48.92;17.15;;;;;;;-5.18;73.07;99044.53;2254331;78;21816;-73
2021/01/15 08:27:00;;;;;;;29.97;9.90;;;;;;;-5.31;72.91;99050.83;2258712;78;21585;-73
2021/01/15 08:30:01;;;;;;;33.98;11.55;;;;;;;-5.44;73.73;99040.09;2256474;78;21270;-73
2021/01/15 08:33:04;;;;;;;37.10;12.47;;;;;;;-5.33;74.54;99055.09;2257578;78;21293;-71
2021/01/15 08:36:05;;;;;;;30.90;11.65;;;;;;;-4.97;75.02;99045.92;2258221;78;21344;-73
2021/01/15 08:39:08;;;;;;;35.25;13.28;;;;;;;-4.53;74.21;99037.55;2256955;78;21559;-71
2021/01/15 08:42:09;;;;;;;37.60;14.30;;;;;;;-4.20;74.10;99042.34;2235383;78;21268;-72
2021/01/15 08:45:10;;;;;;;46.63;17.45;;;;;;;-3.84;73.20;99044.52;2257807;78;21724;-73
2021/01/15 08:48:11;;;;;;;41.50;16.32;;;;;;;-3.74;71.15;99055.64;2257869;78;21256;-72
2021/01/15 08:51:18;;;;;;;36.90;14.58;;;;;;;-3.90;71.08;99059.05;2256216;78;21277;-73
2021/01/15 08:54:17;;;;;;;37.40;15.48;;;;;;;-4.16;70.73;99064.98;2256400;78;21113;-69
2021/01/15 08:57:18;;;;;;;44.33;16.90;;;;;;;-4.49;70.86;99072.16;2257663;78;21253;-71
2021/01/15 09:00:23;;;;;;;44.93;17.67;;;;;;;-4.78;70.81;99067.77;2262334;78;21300;-73
2021/01/15 09:03:24;;;;;;;42.48;17.77;;;;;;;-4.86;71.86;99067.71;2257165;78;21265;-70
2021/01/15 09:06:25;;;;;;;40.95;15.50;;;;;;;-4.78;72.26;99075.45;2258016;78;21158;-73
2021/01/15 09:09:27;;;;;;;39.18;14.45;;;;;;;-4.47;72.35;99076.84;2257394;78;21586;-74
2021/01/15 09:12:29;;;;;;;42.45;15.75;;;;;;;-4.22;71.51;99079.91;2258853;78;21262;-73
2021/01/15 09:15:30;;;;;;;40.40;15.23;;;;;;;-4.12;70.89;99080.80;2262246;78;21664;-73
2021/01/15 09:18:31;;;;;;;38.28;14.03;;;;;;;-4.16;69.76;99088.48;2234463;78;21587;-73
2021/01/15 09:21:32;;;;;;;36.38;12.80;;;;;;;-4.26;69.71;99076.07;2259273;78;21704;-73
2021/01/15 09:24:34;;;;;;;35.88;12.88;;;;;;;-4.28;70.23;99072.63;2256143;78;21130;-74
2021/01/15 09:27:35;;;;;;;38.00;15.70;;;;;;;-4.06;70.42;99074.40;2254840;78;21713;-73
2021/01/15 09:30:36;;;;;;;32.53;13.18;;;;;;;-3.74;70.70;99071.02;2252060;78;21693;-66
2021/01/15 09:33:46;;;;;;;37.98;15.13;;;;;;;-3.33;71.26;99055.22;2256455;78;21269;-70
2021/01/15 09:36:41;;;;;;;45.98;17.98;;;;;;;-2.80;71.41;99057.24;2255349;78;21245;-66
2021/01/15 09:39:42;;;;;;;44.15;17.60;;;;;;;-2.24;70.07;99065.56;2257357;78;21301;-66
2021/01/15 09:42:43;;;;;;;54.15;21.77;;;;;;;-2.35;66.93;99075.88;2256424;78;21289;-68
2021/01/15 09:45:44;;;;;;;45.85;17.37;;;;;;;-2.67;67.31;99074.72;2256300;78;21165;-68
2021/01/15 09:48:46;;;;;;;49.63;19.65;;;;;;;-2.73;66.02;99079.88;2256313;78;21267;-66
2021/01/15 09:51:49;;;;;;;52.23;20.12;;;;;;;-2.79;67.54;99081.63;2256531;78;21147;-66
2021/01/15 09:54:51;;;;;;;59.10;23.42;;;;;;;-2.92;67.49;99081.21;2256406;78;21135;-72
2021/01/15 09:57:52;;;;;;;32.28;10.78;;;;;;;-2.75;68.23;99073.47;2258270;78;21158;-68
2021/01/15 10:00:53;;;;;;;33.50;12.70;;;;;;;-2.84;65.46;99072.23;2256454;78;21713;-67
2021/01/15 10:03:55;;;;;;;30.27;11.63;;;;;;;-2.96;66.21;99067.95;2256191;78;21316;-69
2021/01/15 10:06:56;;;;;;;36.60;13.10;;;;;;;-2.81;67.07;99061.50;2258552;78;21716;-71
2021/01/15 10:09:58;;;;;;;49.20;19.07;;;;;;;-2.68;66.32;99061.03;2256408;78;21178;-73
2021/01/15 10:12:59;;;;;;;49.05;19.82;;;;;;;-2.66;65.20;99059.33;2235750;78;21284;-72
2021/01/15 10:16:00;;;;;;;53.13;21.82;;;;;;;-2.64;66.62;99057.59;2255066;78;21797;-74
2021/01/15 10:19:01;;;;;;;54.93;22.98;;;;;;;-2.50;65.50;99063.09;2254532;78;21536;-73
2021/01/15 10:22:02;;;;;;;58.00;25.43;;;;;;;-2.50;66.17;99058.83;2253086;78;21716;-69
2021/01/15 10:25:04;;;;;;;58.25;25.68;;;;;;;-2.45;67.09;99049.81;2254972;78;21138;-69
2021/01/15 10:28:05;;;;;;;51.95;22.42;;;;;;;-2.24;67.51;99040.28;2251593;78;21266;-70
2021/01/15 10:31:06;;;;;;;47.15;19.92;;;;;;;-1.81;67.06;99046.01;2255344;78;21114;-72
2021/01/15 10:34:07;;;;;;;42.00;16.97;;;;;;;-1.67;65.70;99045.88;2253634;78;21733;-69
2021/01/15 10:37:09;;;;;;;39.55;16.32;;;;;;;-1.73;64.27;99048.52;2255695;78;21753;-67
2021/01/15 10:40:11;;;;;;;41.35;17.42;;;;;;;-1.78;65.38;99052.41;2232233;78;21126;-67
2021/01/15 10:43:12;;;;;;;38.08;16.17;;;;;;;-1.92;64.00;99053.78;2230583;78;21258;-69
2021/01/15 10:46:14;;;;;;;43.52;16.35;;;;;;;-2.23;63.78;99056.97;2254493;78;21300;-69
2021/01/15 10:49:15;;;;;;;44.45;17.23;;;;;;;-2.41;64.62;99049.35;2256074;78;21729;-66
2021/01/15 10:52:16;;;;;;;41.25;16.77;;;;;;;-2.29;65.84;99045.00;2252701;78;21757;-66
2021/01/15 10:55:17;;;;;;;36.77;14.03;;;;;;;-2.35;64.96;99047.62;2257244;78;21153;-66
2021/01/15 10:58:18;;;;;;;39.55;15.68;;;;;;;-2.40;65.80;99038.22;2253031;78;21322;-67
2021/01/15 11:01:19;;;;;;;37.73;14.18;;;;;;;-2.34;64.34;99043.32;2238330;78;21145;-67
2021/01/15 11:04:21;;;;;;;40.50;14.25;;;;;;;-2.37;62.95;99042.06;2256925;78;21323;-66
2021/01/15 11:07:22;;;;;;;38.30;13.88;;;;;;;-2.49;63.29;99036.12;2252182;78;21270;-66
2021/01/15 11:10:23;;;;;;;36.08;13.45;;;;;;;-2.58;63.29;99034.05;2258143;78;21280;-66
2021/01/15 11:13:24;;;;;;;36.35;12.68;;;;;;;-2.71;62.82;99025.54;2255917;78;21296;-67
2021/01/15 11:16:25;;;;;;;35.20;13.35;;;;;;;-2.87;62.91;99032.01;2231130;78;21118;-66
2021/01/15 11:19:27;;;;;;;38.85;13.35;;;;;;;-2.99;63.77;99030.75;2234169;78;21257;-65
2021/01/15 11:22:28;;;;;;;41.15;14.07;;;;;;;-2.97;63.70;99031.62;2255371;78;21272;-65
2021/01/15 11:25:29;;;;;;;37.40;12.78;;;;;;;-2.99;62.60;99028.18;2258193;78;21709;-65
2021/01/15 11:28:30;;;;;;;38.67;12.50;;;;;;;-2.96;61.75;99024.32;2256495;78;21712;-65
2021/01/15 11:31:31;;;;;;;40.52;14.00;;;;;;;-3.03;61.02;99036.34;2256625;78;21745;-73
2021/01/15 11:34:33;;;;;;;37.20;13.18;;;;;;;-3.04;61.97;99027.36;2256202;78;21704;-73
2021/01/15 11:37:35;;;;;;;38.25;14.10;;;;;;;-3.08;62.32;99027.78;2254460;78;21302;-68
2021/01/15 11:40:36;;;;;;;39.75;15.00;;;;;;;-3.23;63.72;99023.55;2257760;78;21692;-73
2021/01/15 11:43:37;;;;;;;43.60;15.72;;;;;;;-3.23;63.72;99023.55;2257001;78;21287;-73
2021/01/15 11:46:39;;;;;;;43.25;13.85;;;;;;;-3.20;64.24;99020.13;2259734;78;21298;-70
2021/01/15 11:49:40;;;;;;;40.20;14.70;;;;;;;-3.10;64.68;99014.52;2260643;78;21264;-71
2021/01/15 11:52:41;;;;;;;36.55;13.45;;;;;;;-3.16;64.51;99014.11;2236251;78;21308;-73
2021/01/15 11:55:43;;;;;;;37.08;13.65;;;;;;;-3.31;64.63;99009.44;2252761;78;21143;-68
2021/01/15 11:58:44;;;;;;;42.25;15.75;;;;;;;-3.36;64.60;99010.30;2255959;78;21310;-72
2021/01/15 12:01:45;;;;;;;43.68;15.15;;;;;;;-3.51;64.99;99006.91;2247057;79;21729;-65
2021/01/15 12:04:46;;;;;;;40.12;15.03;;;;;;;-3.51;65.32;98993.23;2247280;78;21670;-66
2021/01/15 12:07:48;;;;;;;38.20;13.03;;;;;;;-3.48;64.08;98994.51;2245612;79;21709;-68
2021/01/15 12:10:50;;;;;;;44.00;17.17;;;;;;;-3.57;63.64;99004.36;2246508;79;21580;-65
2021/01/15 12:13:52;;;;;;;55.10;21.33;;;;;;;-3.63;64.67;98992.83;2250537;79;21106;-65
2021/01/15 12:16:53;;;;;;;53.80;20.12;;;;;;;-3.60;65.99;98986.86;2248850;79;21361;-65
2021/01/15 12:19:54;;;;;;;48.10;18.60;;;;;;;-3.54;66.49;98985.11;2255969;78;21293;-65
2021/01/15 12:22:55;;;;;;;50.08;18.42;;;;;;;-3.50;66.52;98985.98;2251728;78;21340;-70
2021/01/15 12:25:57;;;;;;;53.73;19.65;;;;;;;-3.52;66.70;98985.98;2250507;78;21249;-65
2021/01/15 12:28:58;;;;;;;59.15;22.02;;;;;;;-3.55;67.41;98988.97;2245168;79;21554;-69
2021/01/15 12:31:59;;;;;;;53.13;18.65;;;;;;;-3.56;67.68;98986.84;2252518;78;21151;-65
2021/01/15 12:35:01;;;;;;;50.88;17.45;;;;;;;-3.61;65.68;98982.13;2247356;78;21276;-65
2021/01/15 12:38:02;;;;;;;52.83;18.75;;;;;;;-3.68;64.98;98977.87;2248674;78;21707;-64
2021/01/15 12:41:03;;;;;;;62.73;22.58;;;;;;;-3.80;65.70;98968.92;2254555;78;21598;-65
2021/01/15 12:44:04;;;;;;;57.33;23.65;;;;;;;-3.77;66.84;98971.48;2248893;78;21142;-65
2021/01/15 12:47:06;;;;;;;55.10;19.20;;;;;;;-3.74;66.57;98988.14;2245104;78;21716;-65
2021/01/15 12:50:07;;;;;;;58.00;22.55;;;;;;;-3.72;66.34;98984.73;2252857;78;21258;-66
2021/01/15 12:53:08;;;;;;;65.32;22.60;;;;;;;-3.75;67.10;98973.60;2252794;78;21725;-68
2021/01/15 12:56:09;;;;;;;63.25;21.02;;;;;;;-3.72;67.10;98976.16;2250477;78;21702;-65
2021/01/15 12:59:10;;;;;;;63.75;22.70;;;;;;;-3.70;66.66;98973.19;2247314;78;21554;-65
2021/01/15 13:02:11;;;;;;;55.92;21.55;;;;;;;-3.72;67.01;98963.34;2229134;79;21253;-67
2021/01/15 13:05:14;;;;;;;51.35;19.62;;;;;;;-3.72;66.94;98962.94;2250920;78;21733;-65
2021/01/15 13:08:15;;;;;;;;;;;;;;;-3.77;67.03;98959.95;2249879;78;21257;-69
2021/01/15 13:11:16;;;;;;;59.38;23.60;;;;;;;-3.80;67.58;98958.23;2254715;78;20226;-74
2021/01/15 13:14:17;;;;;;;63.85;24.15;;;;;;;-3.74;66.81;98956.09;2252792;78;21285;-73
2021/01/15 13:17:19;;;;;;;81.17;31.75;;;;;;;-3.73;66.91;98965.50;2252889;78;21708;-72
2021/01/15 13:20:20;;;;;;;69.82;27.42;;;;;;;-3.74;67.88;98962.50;2248731;78;21696;-72
2021/01/15 13:23:21;;;;;;;61.48;25.35;;;;;;;-3.69;67.56;98964.64;2244653;78;21276;-72
2021/01/15 13:26:25;;;;;;;59.50;23.57;;;;;;;-3.67;66.95;98956.52;2248440;78;21135;-73
2021/01/15 13:29:26;;;;;;;52.50;21.48;;;;;;;-3.67;66.85;98974.45;2249212;78;21755;-71
2021/01/15 13:32:27;;;;;;;57.08;22.37;;;;;;;-3.83;66.71;98972.34;2255426;78;21546;-73
2021/01/15 13:35:28;;;;;;;52.50;21.37;;;;;;;-3.90;67.39;98979.16;2252460;78;21296;-71
2021/01/15 13:38:30;;;;;;;47.10;18.70;;;;;;;-3.93;67.18;98974.05;2248724;78;21305;-72
2021/01/15 13:41:32;;;;;;;50.12;18.87;;;;;;;-4.01;66.41;98968.05;2248852;79;21292;-72
2021/01/15 13:44:33;;;;;;;50.65;19.48;;;;;;;-4.07;67.20;98964.22;2246332;78;21339;-67
2021/01/15 13:47:35;;;;;;;55.50;20.68;;;;;;;-4.11;66.64;98963.34;2245889;78;21293;-73
2021/01/15 13:50:45;;;;;;;53.45;20.30;;;;;;;-4.10;67.19;98960.38;2248008;78;21345;-74
2021/01/15 13:53:39;;;;;;;49.90;18.62;;;;;;;-4.17;67.06;98958.23;2249048;78;21270;-73
2021/01/15 13:56:40;;;;;;;57.10;20.10;;;;;;;-4.21;66.96;98957.39;2249566;78;21280;-71